createdAt,value
2017-09-02T00:00:38.288Z,7.00
2017-09-02T00:01:38.322Z,11.40
2017-09-02T00:02:38.332Z,9.00
2017-09-02T00:03:38.377Z,9.70
2017-09-02T00:04:38.654Z,11.90
2017-09-02T00:05:38.456Z,14.90
2017-09-02T00:06:38.553Z,11.50
2017-09-02T00:07:38.593Z,8.70
2017-09-02T00:08:38.548Z,7.60
2017-09-02T00:09:38.584Z,8.60
2017-09-02T00:10:38.886Z,7.20
2017-09-02T00:11:38.669Z,9.20
2017-09-02T00:12:38.734Z,9.50
2017-09-02T00:13:38.726Z,8.10
2017-09-02T00:14:38.760Z,7.30
2017-09-02T00:15:39.103Z,11.30
2017-09-02T00:16:39.102Z,7.70
2017-09-02T00:17:38.885Z,6.50
2017-09-02T00:18:38.920Z,7.60
2017-09-02T00:19:38.954Z,7.10
2017-09-02T00:20:38.996Z,11.10
2017-09-02T00:21:39.187Z,7.10
2017-09-02T00:22:39.046Z,7.50
2017-09-02T00:23:39.331Z,7.80
2017-09-02T00:24:39.135Z,11.00
2017-09-02T00:25:39.153Z,7.50
2017-09-02T00:26:39.189Z,7.90
2017-09-02T00:27:39.524Z,6.10
2017-09-02T00:28:39.278Z,7.80
2017-09-02T00:29:39.300Z,6.90
2017-09-02T00:30:39.608Z,7.00
2017-09-02T00:31:39.386Z,7.10
2017-09-02T00:32:39.408Z,8.50
2017-09-02T00:33:39.557Z,7.00
2017-09-02T00:34:39.494Z,6.80
2017-09-02T00:35:39.511Z,9.40
2017-09-02T00:36:39.568Z,7.50
2017-09-02T00:37:39.851Z,6.90
2017-09-02T00:38:39.647Z,7.50
2017-09-02T00:39:39.981Z,7.60
2017-09-02T00:40:39.713Z,7.20
2017-09-02T00:41:39.730Z,8.40
2017-09-02T00:42:39.763Z,9.00
2017-09-02T00:43:39.816Z,6.70
2017-09-02T00:44:40.100Z,8.70
2017-09-02T00:45:39.924Z,7.50
2017-09-02T00:46:39.924Z,7.00
2017-09-02T00:47:39.947Z,7.30
2017-09-02T00:48:39.996Z,8.00
2017-09-02T00:49:40.014Z,8.80
2017-09-02T00:50:40.064Z,7.70
2017-09-02T00:51:40.502Z,10.60
2017-09-02T00:52:40.119Z,6.40
2017-09-02T00:53:40.155Z,7.10
2017-09-02T00:54:40.210Z,7.30
2017-09-02T00:55:40.281Z,8.50
2017-09-02T00:56:40.263Z,10.50
2017-09-02T00:57:40.304Z,8.20
2017-09-02T00:58:40.677Z,9.20
2017-09-02T00:59:40.371Z,10.10
2017-09-02T01:00:40.520Z,8.40
2017-09-02T01:01:40.524Z,9.60
2017-09-02T01:02:40.541Z,8.10
2017-09-02T01:03:40.579Z,7.20
2017-09-02T01:04:40.558Z,7.40
2017-09-02T01:05:40.906Z,10.10
2017-09-02T01:06:40.657Z,6.50
2017-09-02T01:07:40.661Z,7.70
2017-09-02T01:08:40.707Z,9.80
2017-09-02T01:09:40.756Z,9.90
2017-09-02T01:10:40.782Z,8.60
2017-09-02T01:11:40.800Z,8.00
2017-09-02T01:12:41.097Z,7.40
2017-09-02T01:13:40.869Z,6.00
2017-09-02T01:14:40.904Z,8.30
2017-09-02T01:15:40.956Z,8.20
2017-09-02T01:16:40.997Z,8.80
2017-09-02T01:17:41.329Z,8.10
2017-09-02T01:18:41.053Z,12.00
2017-09-02T01:19:41.383Z,7.70
2017-09-02T01:20:41.146Z,7.90
2017-09-02T01:21:41.171Z,7.20
2017-09-02T01:22:41.248Z,7.40
2017-09-02T01:23:41.232Z,6.90
2017-09-02T01:24:41.284Z,7.70
2017-09-02T01:25:41.334Z,6.20
2017-09-02T01:26:41.651Z,7.80
2017-09-02T01:27:41.397Z,9.40
2017-09-02T01:28:41.422Z,10.00
2017-09-02T01:29:41.458Z,7.60
2017-09-02T01:30:41.494Z,6.70
2017-09-02T01:31:41.515Z,7.70
2017-09-02T01:32:41.550Z,6.50
2017-09-02T01:33:41.851Z,7.50
2017-09-02T01:34:41.826Z,7.90
2017-09-02T01:35:41.670Z,8.80
2017-09-02T01:36:41.693Z,9.50
2017-09-02T01:37:41.730Z,9.50
2017-09-02T01:38:41.782Z,8.40
2017-09-02T01:39:41.815Z,10.20
2017-09-02T01:40:42.438Z,9.50
2017-09-02T01:41:41.874Z,9.50
2017-09-02T01:42:41.911Z,7.50
2017-09-02T01:43:41.938Z,8.90
2017-09-02T01:44:42.000Z,8.90
2017-09-02T01:45:42.011Z,11.10
2017-09-02T01:46:42.048Z,9.40
2017-09-02T01:47:42.331Z,7.00
2017-09-02T01:48:42.139Z,11.40
2017-09-02T01:49:42.178Z,11.40
2017-09-02T01:50:42.193Z,9.60
2017-09-02T01:51:42.423Z,8.60
2017-09-02T01:52:42.279Z,9.50
2017-09-02T01:53:42.551Z,9.50
2017-09-02T01:54:42.338Z,8.90
2017-09-02T01:55:42.368Z,8.60
2017-09-02T01:56:42.425Z,8.70
2017-09-02T01:57:42.605Z,7.30
2017-09-02T01:58:42.475Z,6.00
2017-09-02T01:59:42.759Z,8.50
2017-09-02T02:00:42.563Z,9.70
2017-09-02T02:01:42.608Z,8.50
2017-09-02T02:02:42.638Z,7.60
2017-09-02T02:03:42.858Z,12.20
2017-09-02T02:04:42.705Z,8.20
2017-09-02T02:05:43.028Z,9.40
2017-09-02T02:06:42.759Z,7.70
2017-09-02T02:07:42.800Z,7.70
2017-09-02T02:08:42.853Z,7.80
2017-09-02T02:09:43.089Z,9.20
2017-09-02T02:10:42.911Z,7.20
2017-09-02T02:11:43.208Z,8.80
2017-09-02T02:12:42.976Z,7.70
2017-09-02T02:13:43.026Z,8.40
2017-09-02T02:14:43.047Z,9.20
2017-09-02T02:15:43.164Z,7.10
2017-09-02T02:16:43.136Z,7.30
2017-09-02T02:17:43.404Z,6.20
2017-09-02T02:18:43.187Z,9.40
2017-09-02T02:19:43.246Z,7.20
2017-09-02T02:20:43.258Z,7.20
2017-09-02T02:21:43.293Z,10.50
2017-09-02T02:22:43.350Z,7.10
2017-09-02T02:23:43.655Z,10.40
2017-09-02T02:24:43.449Z,7.70
2017-09-02T02:25:43.455Z,10.20
2017-09-02T02:26:43.525Z,8.70
2017-09-02T02:27:43.522Z,7.90
2017-09-02T02:28:43.542Z,10.30
2017-09-02T02:29:43.835Z,7.50
2017-09-02T02:30:43.668Z,8.90
2017-09-02T02:31:43.705Z,9.40
2017-09-02T02:32:43.694Z,7.40
2017-09-02T02:33:43.724Z,9.00
2017-09-02T02:34:43.774Z,9.20
2017-09-02T02:35:44.066Z,6.90
2017-09-02T02:36:44.127Z,7.90
2017-09-02T02:37:43.886Z,7.90
2017-09-02T02:38:43.974Z,11.00
2017-09-02T02:39:43.959Z,7.60
2017-09-02T02:40:44.005Z,5.90
2017-09-02T02:41:44.384Z,7.00
2017-09-02T02:42:44.244Z,9.30
2017-09-02T02:43:44.192Z,7.40
2017-09-02T02:44:44.196Z,8.70
2017-09-02T02:45:44.186Z,9.50
2017-09-02T02:46:44.211Z,7.00
2017-09-02T02:47:44.466Z,11.00
2017-09-02T02:48:44.267Z,6.00
2017-09-02T02:49:44.397Z,5.70
2017-09-02T02:50:44.337Z,9.10
2017-09-02T02:51:44.381Z,6.80
2017-09-02T02:52:44.431Z,6.40
2017-09-02T02:53:44.710Z,8.10
2017-09-02T02:54:44.466Z,7.00
2017-09-02T02:55:44.533Z,7.10
2017-09-02T02:56:44.553Z,7.10
2017-09-02T02:57:44.571Z,6.20
2017-09-02T02:58:44.707Z,6.50
2017-09-02T02:59:44.906Z,7.50
2017-09-02T03:00:44.895Z,5.60
2017-09-02T03:01:44.711Z,6.20
2017-09-02T03:02:44.759Z,6.30
2017-09-02T03:03:44.801Z,6.00
2017-09-02T03:04:44.835Z,6.00
2017-09-02T03:05:44.855Z,7.40
2017-09-02T03:06:45.206Z,7.80
2017-09-02T03:07:44.934Z,9.50
2017-09-02T03:08:44.976Z,7.60
2017-09-02T03:09:45.021Z,7.30
2017-09-02T03:10:45.036Z,6.30
2017-09-02T03:11:45.094Z,7.10
2017-09-02T03:12:45.105Z,7.00
2017-09-02T03:13:45.437Z,7.20
2017-09-02T03:14:45.208Z,7.60
2017-09-02T03:15:45.229Z,8.80
2017-09-02T03:16:45.267Z,7.30
2017-09-02T03:17:45.391Z,6.50
2017-09-02T03:18:45.333Z,6.00
2017-09-02T03:19:45.372Z,5.60
2017-09-02T03:20:45.661Z,6.40
2017-09-02T03:21:45.422Z,6.50
2017-09-02T03:22:45.477Z,6.40
2017-09-02T03:23:45.511Z,6.70
2017-09-02T03:24:45.630Z,6.10
2017-09-02T03:25:45.564Z,6.60
2017-09-02T03:26:45.625Z,9.00
2017-09-02T03:27:45.992Z,6.50
2017-09-02T03:28:45.692Z,6.30
2017-09-02T03:29:45.776Z,7.40
2017-09-02T03:30:45.744Z,7.30
2017-09-02T03:31:45.788Z,7.30
2017-09-02T03:32:45.813Z,7.70
2017-09-02T03:33:45.867Z,8.40
2017-09-02T03:34:46.156Z,6.30
2017-09-02T03:35:46.075Z,8.40
2017-09-02T03:36:45.969Z,6.50
2017-09-02T03:37:46.016Z,7.00
2017-09-02T03:38:46.057Z,6.10
2017-09-02T03:39:46.078Z,6.00
2017-09-02T03:40:46.103Z,7.40
2017-09-02T03:41:46.682Z,6.40
2017-09-02T03:42:46.173Z,9.00
2017-09-02T03:43:46.216Z,7.20
2017-09-02T03:44:46.270Z,6.80
2017-09-02T03:45:46.289Z,7.70
2017-09-02T03:46:46.326Z,8.50
2017-09-02T03:47:46.446Z,6.40
2017-09-02T03:48:46.700Z,8.40
2017-09-02T03:49:46.421Z,5.60
2017-09-02T03:50:46.493Z,8.50
2017-09-02T03:51:46.485Z,6.80
2017-09-02T03:52:46.549Z,7.30
2017-09-02T03:53:46.644Z,9.20
2017-09-02T03:54:46.593Z,8.50
2017-09-02T03:55:46.922Z,8.70
2017-09-02T03:56:46.664Z,7.60
2017-09-02T03:57:46.726Z,6.20
2017-09-02T03:58:46.736Z,5.70
2017-09-02T03:59:46.826Z,6.00
2017-09-02T04:00:46.804Z,6.80
2017-09-02T04:01:46.855Z,5.80
2017-09-02T04:02:46.892Z,7.30
2017-09-02T04:03:46.952Z,7.70
2017-09-02T04:04:46.963Z,6.80
2017-09-02T04:05:47.088Z,8.40
2017-09-02T04:06:47.053Z,8.10
2017-09-02T04:07:47.107Z,6.90
2017-09-02T04:08:47.344Z,6.00
2017-09-02T04:09:47.171Z,6.00
2017-09-02T04:10:47.177Z,8.70
2017-09-02T04:11:47.217Z,7.70
2017-09-02T04:12:47.253Z,7.70
2017-09-02T04:13:47.264Z,6.60
2017-09-02T04:14:47.319Z,6.50
2017-09-02T04:15:47.677Z,9.80
2017-09-02T04:16:47.380Z,5.60
2017-09-02T04:17:47.726Z,7.00
2017-09-02T04:18:47.442Z,8.60
2017-09-02T04:19:47.495Z,6.30
2017-09-02T04:20:47.521Z,7.60
2017-09-02T04:21:47.571Z,8.30
2017-09-02T04:22:47.896Z,6.20
2017-09-02T04:23:47.836Z,6.00
2017-09-02T04:24:47.658Z,7.00
2017-09-02T04:25:47.705Z,9.40
2017-09-02T04:26:47.726Z,5.20
2017-09-02T04:27:47.849Z,6.40
2017-09-02T04:28:47.796Z,5.90
2017-09-02T04:29:48.152Z,5.80
2017-09-02T04:30:47.870Z,7.70
2017-09-02T04:31:47.922Z,6.00
2017-09-02T04:32:47.936Z,7.00
2017-09-02T04:33:47.976Z,7.50
2017-09-02T04:34:48.007Z,7.30
2017-09-02T04:35:48.392Z,7.80
2017-09-02T04:36:48.090Z,6.30
2017-09-02T04:37:48.319Z,6.30
2017-09-02T04:38:48.174Z,7.00
2017-09-02T04:39:48.184Z,6.40
2017-09-02T04:40:48.234Z,6.10
2017-09-02T04:41:48.557Z,7.10
2017-09-02T04:42:48.308Z,6.70
2017-09-02T04:43:48.377Z,5.90
2017-09-02T04:44:48.362Z,7.30
2017-09-02T04:45:48.442Z,5.40
2017-09-02T04:46:48.452Z,6.40
2017-09-02T04:47:48.779Z,6.30
2017-09-02T04:48:48.521Z,6.20
2017-09-02T04:49:48.558Z,11.10
2017-09-02T04:50:48.595Z,6.30
2017-09-02T04:51:48.610Z,7.40
2017-09-02T04:52:48.646Z,8.00
2017-09-02T04:53:49.025Z,7.00
2017-09-02T04:54:48.738Z,7.10
2017-09-02T04:55:48.870Z,8.90
2017-09-02T04:56:48.807Z,8.40
2017-09-02T04:57:48.821Z,8.00
2017-09-02T04:58:48.861Z,7.70
2017-09-02T04:59:49.205Z,6.10
2017-09-02T05:00:48.940Z,5.80
2017-09-02T05:01:49.184Z,7.00
2017-09-02T05:02:49.019Z,9.00
2017-09-02T05:03:49.038Z,8.30
2017-09-02T05:04:49.087Z,7.70
2017-09-02T05:05:49.380Z,6.70
2017-09-02T05:06:49.164Z,8.60
2017-09-02T05:07:49.175Z,7.30
2017-09-02T05:08:49.243Z,8.50
2017-09-02T05:09:49.277Z,7.50
2017-09-02T05:10:49.293Z,7.50
2017-09-02T05:11:49.648Z,8.60
2017-09-02T05:12:49.467Z,8.10
2017-09-02T05:13:49.397Z,6.50
2017-09-02T05:14:49.446Z,9.30
2017-09-02T05:15:49.522Z,7.60
2017-09-02T05:16:49.509Z,9.80
2017-09-02T05:17:49.861Z,9.00
2017-09-02T05:18:49.570Z,12.00
2017-09-02T05:19:49.617Z,10.40
2017-09-02T05:20:49.633Z,12.40
2017-09-02T05:21:49.674Z,13.00
2017-09-02T05:22:49.756Z,11.20
2017-09-02T05:23:49.990Z,14.20
2017-09-02T05:24:49.793Z,11.70
2017-09-02T05:25:49.818Z,16.00
2017-09-02T05:26:49.848Z,15.70
2017-09-02T05:27:49.906Z,12.00
2017-09-02T05:28:50.037Z,13.20
2017-09-02T05:29:50.207Z,14.80
2017-09-02T05:30:50.009Z,12.80
2017-09-02T05:31:50.049Z,14.10
2017-09-02T05:32:50.062Z,12.50
2017-09-02T05:33:50.111Z,13.50
2017-09-02T05:34:50.200Z,17.10
2017-09-02T05:35:50.428Z,11.30
2017-09-02T05:36:50.199Z,12.90
2017-09-02T05:37:50.232Z,13.70
2017-09-02T05:38:50.279Z,14.90
2017-09-02T05:39:50.305Z,12.00
2017-09-02T05:40:50.338Z,10.60
2017-09-02T05:41:50.684Z,14.10
2017-09-02T05:42:50.411Z,11.50
2017-09-02T05:43:50.463Z,10.80
2017-09-02T05:44:50.695Z,10.70
2017-09-02T05:45:50.530Z,10.90
2017-09-02T05:46:50.557Z,11.10
2017-09-02T05:47:50.902Z,13.80
2017-09-02T05:48:50.621Z,10.80
2017-09-02T05:49:50.660Z,11.50
2017-09-02T05:50:50.706Z,10.30
2017-09-02T05:51:50.739Z,14.10
2017-09-02T05:52:50.820Z,8.90
2017-09-02T05:53:50.794Z,9.60
2017-09-02T05:54:51.100Z,15.30
2017-09-02T05:55:50.864Z,13.90
2017-09-02T05:56:50.916Z,8.80
2017-09-02T05:57:50.933Z,12.00
2017-09-02T05:58:50.985Z,11.80
2017-09-02T05:59:51.034Z,12.70
2017-09-02T06:00:51.112Z,10.70
2017-09-02T06:01:51.393Z,12.20
2017-09-02T06:02:51.110Z,10.70
2017-09-02T06:03:51.149Z,11.50
2017-09-02T06:04:51.178Z,11.50
2017-09-02T06:05:51.231Z,10.80
2017-09-02T06:06:51.273Z,12.30
2017-09-02T06:07:51.289Z,10.80
2017-09-02T06:08:51.574Z,13.10
2017-09-02T06:09:51.369Z,11.70
2017-09-02T06:10:51.407Z,8.90
2017-09-02T06:11:51.422Z,11.10
2017-09-02T06:12:51.459Z,13.70
2017-09-02T06:13:51.510Z,17.20
2017-09-02T06:14:51.530Z,12.00
2017-09-02T06:15:51.871Z,13.40
2017-09-02T06:16:51.594Z,14.30
2017-09-02T06:17:51.638Z,12.80
2017-09-02T06:18:51.695Z,8.20
2017-09-02T06:19:51.701Z,11.50
2017-09-02T06:20:51.786Z,10.90
2017-09-02T06:21:51.793Z,10.10
2017-09-02T06:22:52.109Z,9.30
2017-09-02T06:23:51.840Z,10.20
2017-09-02T06:24:51.878Z,9.50
2017-09-02T06:25:51.919Z,11.30
2017-09-02T06:26:52.265Z,9.90
2017-09-02T06:27:51.997Z,11.60
2017-09-02T06:28:52.031Z,10.70
2017-09-02T06:29:52.355Z,12.60
2017-09-02T06:30:52.093Z,9.60
2017-09-02T06:31:52.121Z,12.30
2017-09-02T06:32:52.164Z,11.60
2017-09-02T06:33:52.196Z,11.20
2017-09-02T06:34:52.229Z,12.40
2017-09-02T06:35:52.277Z,11.90
2017-09-02T06:36:52.621Z,13.80
2017-09-02T06:37:52.351Z,12.00
2017-09-02T06:38:52.406Z,14.20
2017-09-02T06:39:52.423Z,13.90
2017-09-02T06:40:52.456Z,15.50
2017-09-02T06:41:52.489Z,12.20
2017-09-02T06:42:52.548Z,12.80
2017-09-02T06:43:52.861Z,12.10
2017-09-02T06:44:52.583Z,13.60
2017-09-02T06:45:52.621Z,12.40
2017-09-02T06:46:52.651Z,11.60
2017-09-02T06:47:52.692Z,14.10
2017-09-02T06:48:52.721Z,13.00
2017-09-02T06:49:52.759Z,17.00
2017-09-02T06:50:53.057Z,14.90
2017-09-02T06:51:52.828Z,11.20
2017-09-02T06:52:52.875Z,12.60
2017-09-02T06:53:52.895Z,16.00
2017-09-02T06:54:52.932Z,13.30
2017-09-02T06:55:52.981Z,13.40
2017-09-02T06:56:53.173Z,11.40
2017-09-02T06:57:53.287Z,14.30
2017-09-02T06:58:53.094Z,8.70
2017-09-02T06:59:53.138Z,13.70
2017-09-02T07:00:53.151Z,13.80
2017-09-02T07:01:53.304Z,16.00
2017-09-02T07:02:53.233Z,13.60
2017-09-02T07:03:53.251Z,12.40
2017-09-02T07:04:53.600Z,13.40
2017-09-02T07:05:53.343Z,11.90
2017-09-02T07:06:53.473Z,15.90
2017-09-02T07:07:53.425Z,16.10
2017-09-02T07:08:53.428Z,18.20
2017-09-02T07:09:53.466Z,16.70
2017-09-02T07:10:53.519Z,18.70
2017-09-02T07:11:53.914Z,17.50
2017-09-02T07:12:53.585Z,14.20
2017-09-02T07:13:53.617Z,16.10
2017-09-02T07:14:53.663Z,15.90
2017-09-02T07:15:53.691Z,13.40
2017-09-02T07:16:53.713Z,11.80
2017-09-02T07:17:54.062Z,15.50
2017-09-02T07:18:53.781Z,15.20
2017-09-02T07:19:53.836Z,9.40
2017-09-02T07:20:53.851Z,14.10
2017-09-02T07:21:53.906Z,14.30
2017-09-02T07:22:53.928Z,16.70
2017-09-02T07:23:54.277Z,13.90
2017-09-02T07:24:54.015Z,12.60
2017-09-02T07:25:54.056Z,13.50
2017-09-02T07:26:54.074Z,15.90
2017-09-02T07:27:54.210Z,20.90
2017-09-02T07:28:54.163Z,15.40
2017-09-02T07:29:54.425Z,13.30
2017-09-02T07:30:54.209Z,15.80
2017-09-02T07:31:54.271Z,16.00
2017-09-02T07:32:54.347Z,8.90
2017-09-02T07:33:54.474Z,15.70
2017-09-02T07:34:54.356Z,13.80
2017-09-02T07:35:54.638Z,13.80
2017-09-02T07:36:54.443Z,14.60
2017-09-02T07:37:54.491Z,15.40
2017-09-02T07:38:54.504Z,15.60
2017-09-02T07:39:54.605Z,15.30
2017-09-02T07:40:54.588Z,13.00
2017-09-02T07:41:54.915Z,14.60
2017-09-02T07:42:54.796Z,11.30
2017-09-02T07:43:54.686Z,12.20
2017-09-02T07:44:54.719Z,13.20
2017-09-02T07:45:54.774Z,12.30
2017-09-02T07:46:54.806Z,12.50
2017-09-02T07:47:55.190Z,9.90
2017-09-02T07:48:54.898Z,11.40
2017-09-02T07:49:54.904Z,10.70
2017-09-02T07:50:54.948Z,12.50
2017-09-02T07:51:54.986Z,11.70
2017-09-02T07:52:55.009Z,12.00
2017-09-02T07:53:55.356Z,10.50
2017-09-02T07:54:55.098Z,8.70
2017-09-02T07:55:55.111Z,12.70
2017-09-02T07:56:55.220Z,15.80
2017-09-02T07:57:55.409Z,7.00
2017-09-02T07:58:55.236Z,12.30
2017-09-02T07:59:55.647Z,8.60
2017-09-02T08:00:55.316Z,12.10
2017-09-02T08:01:55.329Z,14.00
2017-09-02T08:02:55.444Z,7.50
2017-09-02T08:03:55.403Z,12.30
2017-09-02T08:04:55.480Z,6.90
2017-09-02T08:05:55.764Z,10.40
2017-09-02T08:06:55.509Z,9.90
2017-09-02T08:07:55.573Z,6.40
2017-09-02T08:08:55.583Z,7.20
2017-09-02T08:09:55.675Z,10.00
2017-09-02T08:10:55.675Z,9.70
2017-09-02T08:11:56.008Z,8.70
2017-09-02T08:12:55.731Z,7.50
2017-09-02T08:13:55.817Z,6.90
2017-09-02T08:14:55.822Z,8.30
2017-09-02T08:15:55.838Z,7.10
2017-09-02T08:16:55.897Z,8.10
2017-09-02T08:17:56.166Z,8.80
2017-09-02T08:18:55.967Z,6.60
2017-09-02T08:19:56.013Z,6.30
2017-09-02T08:20:56.022Z,6.60
2017-09-02T08:21:56.076Z,9.30
2017-09-02T08:22:56.102Z,7.50
2017-09-02T08:23:56.387Z,8.00
2017-09-02T08:24:56.374Z,7.30
2017-09-02T08:25:56.206Z,6.80
2017-09-02T08:26:56.261Z,6.50
2017-09-02T08:27:56.297Z,4.90
2017-09-02T08:28:56.334Z,7.80
2017-09-02T08:29:56.654Z,7.00
2017-09-02T08:31:01.848Z,5.10
2017-09-02T08:31:56.446Z,5.90
2017-09-02T08:32:56.483Z,6.00
2017-09-02T08:33:56.500Z,7.00
2017-09-02T08:34:56.713Z,4.70
2017-09-02T08:35:56.842Z,4.80
2017-09-02T08:36:56.613Z,6.20
2017-09-02T08:37:56.706Z,5.60
2017-09-02T08:38:56.718Z,6.60
2017-09-02T08:39:56.759Z,8.80
2017-09-02T08:40:56.763Z,8.20
2017-09-02T08:41:56.799Z,7.50
2017-09-02T08:42:57.147Z,7.40
2017-09-02T08:43:56.878Z,7.10
2017-09-02T08:44:56.926Z,6.90
2017-09-02T08:45:56.971Z,11.50
2017-09-02T08:46:57.007Z,8.50
2017-09-02T08:47:57.067Z,6.20
2017-09-02T08:48:57.058Z,8.20
2017-09-02T08:49:57.347Z,9.60
2017-09-02T08:50:57.282Z,6.60
2017-09-02T08:51:57.185Z,7.90
2017-09-02T08:52:57.225Z,6.90
2017-09-02T08:53:57.245Z,7.90
2017-09-02T08:54:57.299Z,6.10
2017-09-02T08:55:57.314Z,5.40
2017-09-02T08:56:57.819Z,7.30
2017-09-02T08:57:57.395Z,7.30
2017-09-02T08:58:57.428Z,9.50
2017-09-02T08:59:57.531Z,6.70
2017-09-02T09:00:57.511Z,5.50
2017-09-02T09:01:57.560Z,6.20
2017-09-02T09:02:57.800Z,7.70
2017-09-02T09:03:57.867Z,6.00
2017-09-02T09:04:57.677Z,7.30
2017-09-02T09:05:57.689Z,6.40
2017-09-02T09:06:57.767Z,4.50
2017-09-02T09:07:57.813Z,5.00
2017-09-02T09:08:57.919Z,7.70
2017-09-02T09:09:57.860Z,6.80
2017-09-02T09:10:58.126Z,7.20
2017-09-02T09:11:57.931Z,6.80
2017-09-02T09:12:57.982Z,6.40
2017-09-02T09:13:58.000Z,8.10
2017-09-02T09:14:58.053Z,7.80
2017-09-02T09:15:58.081Z,5.50
2017-09-02T09:16:58.117Z,9.30
2017-09-02T09:17:58.418Z,6.70
2017-09-02T09:18:58.201Z,6.50
2017-09-02T09:19:58.219Z,9.50
2017-09-02T09:20:58.282Z,5.40
2017-09-02T09:21:58.308Z,5.40
2017-09-02T09:22:58.329Z,7.50
2017-09-02T09:23:58.670Z,6.30
2017-09-02T09:24:58.680Z,7.60
2017-09-02T09:25:58.439Z,6.10
2017-09-02T09:26:58.506Z,4.40
2017-09-02T09:27:58.538Z,5.20
2017-09-02T09:28:58.567Z,7.30
2017-09-02T09:29:58.616Z,7.30
2017-09-02T09:30:58.629Z,6.20
2017-09-02T09:31:58.980Z,6.50
2017-09-02T09:32:58.730Z,7.30
2017-09-02T09:33:58.739Z,7.40
2017-09-02T09:34:58.796Z,6.20
2017-09-02T09:35:58.834Z,4.60
2017-09-02T09:36:59.070Z,7.50
2017-09-02T09:37:58.893Z,6.60
2017-09-02T09:38:59.194Z,8.00
2017-09-02T09:39:58.968Z,7.30
2017-09-02T09:40:59.036Z,5.70
2017-09-02T09:41:59.063Z,8.40
2017-09-02T09:42:59.304Z,7.30
2017-09-02T09:43:59.137Z,7.50
2017-09-02T09:44:59.171Z,7.80
2017-09-02T09:45:59.507Z,5.70
2017-09-02T09:46:59.229Z,4.40
2017-09-02T09:47:59.275Z,6.20
2017-09-02T09:48:59.436Z,7.60
2017-09-02T09:49:59.412Z,6.90
2017-09-02T09:50:59.395Z,9.30
2017-09-02T09:51:59.442Z,9.10
2017-09-02T09:52:59.777Z,8.90
2017-09-02T09:53:59.523Z,6.40
2017-09-02T09:54:59.598Z,6.40
2017-09-02T09:55:59.598Z,6.00
2017-09-02T09:56:59.625Z,8.20
2017-09-02T09:57:59.665Z,7.30
2017-09-02T09:58:59.729Z,6.80
2017-09-02T10:00:00.054Z,7.20
2017-09-02T10:00:59.827Z,5.50
2017-09-02T10:01:59.798Z,6.80
2017-09-02T10:02:59.926Z,6.40
2017-09-02T10:03:59.892Z,7.40
2017-09-02T10:04:59.927Z,8.80
2017-09-02T10:06:00.283Z,6.70
2017-09-02T10:07:00.008Z,11.20
2017-09-02T10:08:00.031Z,9.40
2017-09-02T10:09:00.113Z,7.90
2017-09-02T10:10:00.157Z,6.30
2017-09-02T10:11:00.162Z,7.20
2017-09-02T10:12:00.508Z,10.20
2017-09-02T10:13:00.236Z,7.20
2017-09-02T10:14:00.277Z,6.90
2017-09-02T10:15:00.308Z,8.90
2017-09-02T10:16:00.342Z,9.10
2017-09-02T10:17:00.383Z,5.70
2017-09-02T10:18:00.669Z,7.20
2017-09-02T10:19:00.527Z,7.80
2017-09-02T10:20:00.524Z,6.80
2017-09-02T10:21:00.518Z,7.90
2017-09-02T10:22:00.553Z,8.10
2017-09-02T10:23:00.593Z,6.50
2017-09-02T10:24:00.879Z,9.90
2017-09-02T10:25:00.685Z,8.80
2017-09-02T10:26:00.727Z,8.20
2017-09-02T10:27:00.751Z,6.30
2017-09-02T10:28:00.781Z,10.90
2017-09-02T10:29:00.849Z,6.70
2017-09-02T10:30:01.133Z,6.50
2017-09-02T10:31:00.937Z,7.30
2017-09-02T10:32:01.008Z,7.20
2017-09-02T10:33:00.972Z,6.80
2017-09-02T10:34:01.652Z,8.60
2017-09-02T10:35:01.050Z,7.40
2017-09-02T10:36:01.349Z,7.10
2017-09-02T10:37:01.149Z,6.40
2017-09-02T10:38:01.391Z,8.20
2017-09-02T10:39:01.242Z,6.20
2017-09-02T10:40:01.265Z,6.40
2017-09-02T10:41:01.285Z,9.40
2017-09-02T10:42:01.635Z,8.70
2017-09-02T10:43:01.375Z,5.70
2017-09-02T10:44:01.392Z,6.80
2017-09-02T10:45:01.448Z,11.40
2017-09-02T10:46:01.470Z,7.40
2017-09-02T10:47:01.531Z,7.80
2017-09-02T10:48:01.864Z,6.70
2017-09-02T10:49:01.588Z,6.10
2017-09-02T10:50:01.621Z,8.10
2017-09-02T10:51:01.679Z,7.60
2017-09-02T10:52:01.754Z,5.20
2017-09-02T10:53:01.904Z,6.10
2017-09-02T10:54:02.029Z,7.50
2017-09-02T10:55:01.867Z,6.50
2017-09-02T10:56:01.874Z,5.50
2017-09-02T10:57:01.937Z,7.40
2017-09-02T10:58:01.941Z,4.30
2017-09-02T10:59:01.965Z,5.60
2017-09-02T11:00:02.268Z,5.40
2017-09-02T11:01:02.059Z,6.30
2017-09-02T11:02:02.091Z,4.60
2017-09-02T11:03:02.329Z,6.50
2017-09-02T11:04:02.176Z,7.40
2017-09-02T11:05:02.216Z,6.80
2017-09-02T11:06:02.496Z,6.00
2017-09-02T11:07:02.267Z,9.30
2017-09-02T11:08:02.324Z,7.20
2017-09-02T11:09:02.404Z,6.20
2017-09-02T11:10:02.411Z,6.70
2017-09-02T11:11:02.428Z,7.90
2017-09-02T11:12:02.779Z,5.00
2017-09-02T11:13:02.502Z,7.20
2017-09-02T11:14:02.549Z,5.20
2017-09-02T11:15:02.614Z,8.00
2017-09-02T11:16:02.627Z,7.20
2017-09-02T11:17:02.676Z,6.80
2017-09-02T11:18:03.018Z,7.50
2017-09-02T11:20:02.779Z,6.10
2017-09-02T11:21:02.866Z,6.30
2017-09-02T11:22:03.287Z,6.10
2017-09-02T11:23:02.896Z,4.80
2017-09-02T11:24:02.927Z,9.00
2017-09-02T11:25:02.960Z,5.70
2017-09-02T11:26:03.005Z,6.30
2017-09-02T11:27:03.051Z,10.30
2017-09-02T11:28:03.293Z,4.60
2017-09-02T11:29:03.360Z,8.00
2017-09-02T11:30:03.165Z,8.70
2017-09-02T11:31:03.202Z,8.90
2017-09-02T11:32:03.223Z,9.70
2017-09-02T11:33:03.288Z,9.10
2017-09-02T11:34:03.344Z,7.50
2017-09-02T11:35:03.349Z,6.50
2017-09-02T11:36:03.703Z,8.00
2017-09-02T11:37:03.430Z,8.10
2017-09-02T11:38:03.594Z,7.10
2017-09-02T11:39:03.490Z,11.30
2017-09-02T11:40:03.615Z,5.90
2017-09-02T11:41:03.576Z,6.80
2017-09-02T11:42:03.610Z,8.10
2017-09-02T11:43:03.975Z,9.10
2017-09-02T11:44:03.702Z,7.30
2017-09-02T11:45:03.722Z,10.70
2017-09-02T11:46:03.784Z,7.10
2017-09-02T11:47:03.829Z,9.50
2017-09-02T11:48:03.857Z,7.80
2017-09-02T11:49:03.881Z,8.40
2017-09-02T11:50:04.269Z,7.50
2017-09-02T11:51:03.957Z,9.00
2017-09-02T11:52:04.009Z,8.40
2017-09-02T11:53:04.048Z,8.90
2017-09-02T11:54:04.092Z,7.20
2017-09-02T11:55:04.124Z,8.90
2017-09-02T11:56:04.175Z,6.30
2017-09-02T11:57:04.431Z,9.30
2017-09-02T11:58:04.242Z,5.90
2017-09-02T11:59:04.267Z,7.80
2017-09-02T12:00:04.295Z,5.90
2017-09-02T12:01:04.358Z,9.40
2017-09-02T12:02:04.595Z,6.20
2017-09-02T12:03:04.428Z,7.70
2017-09-02T12:04:04.789Z,8.30
2017-09-02T12:05:04.487Z,10.00
2017-09-02T12:06:04.541Z,8.50
2017-09-02T12:07:04.586Z,7.40
2017-09-02T12:08:04.607Z,8.50
2017-09-02T12:09:04.657Z,9.40
2017-09-02T12:10:04.699Z,9.60
2017-09-02T12:11:05.174Z,7.40
2017-09-02T12:12:04.763Z,10.60
2017-09-02T12:13:04.795Z,8.60
2017-09-02T12:14:04.849Z,6.50
2017-09-02T12:15:04.876Z,8.90
2017-09-02T12:16:04.915Z,8.50
2017-09-02T12:17:05.163Z,9.20
2017-09-02T12:18:04.987Z,8.80
2017-09-02T12:19:05.044Z,6.90
2017-09-02T12:20:05.104Z,9.00
2017-09-02T12:21:05.100Z,6.50
2017-09-02T12:22:05.154Z,7.10
2017-09-02T12:23:05.179Z,6.60
2017-09-02T12:24:05.487Z,10.10
2017-09-02T12:25:05.284Z,8.40
2017-09-02T12:26:05.324Z,8.20
2017-09-02T12:27:05.402Z,5.60
2017-09-02T12:28:05.367Z,9.20
2017-09-02T12:29:05.413Z,8.10
2017-09-02T12:30:05.475Z,7.20
2017-09-02T12:31:05.732Z,9.10
2017-09-02T12:32:05.537Z,6.40
2017-09-02T12:33:05.826Z,7.50
2017-09-02T12:34:05.618Z,8.80
2017-09-02T12:35:05.659Z,6.40
2017-09-02T12:36:05.689Z,6.10
2017-09-02T12:37:05.739Z,6.20
2017-09-02T12:38:06.010Z,5.60
2017-09-02T12:39:05.790Z,5.20
2017-09-02T12:40:05.829Z,6.70
2017-09-02T12:41:05.870Z,9.00
2017-09-02T12:42:05.911Z,5.70
2017-09-02T12:43:05.947Z,7.00
2017-09-02T12:44:05.999Z,6.40
2017-09-02T12:45:06.745Z,8.30
2017-09-02T12:46:06.078Z,6.60
2017-09-02T12:47:06.116Z,6.40
2017-09-02T12:48:06.135Z,7.80
2017-09-02T12:49:06.198Z,7.60
2017-09-02T12:50:06.218Z,7.70
2017-09-02T12:51:06.479Z,6.90
2017-09-02T12:52:06.558Z,6.40
2017-09-02T12:53:06.329Z,7.10
2017-09-02T12:54:06.389Z,6.80
2017-09-02T12:55:06.409Z,6.60
2017-09-02T12:56:06.462Z,6.70
2017-09-02T12:57:06.483Z,5.40
2017-09-02T12:58:06.828Z,5.60
2017-09-02T12:59:06.579Z,8.60
2017-09-02T13:00:06.624Z,5.80
2017-09-02T13:01:06.657Z,4.30
2017-09-02T13:02:06.679Z,9.20
2017-09-02T13:03:06.733Z,5.20
2017-09-02T13:04:07.163Z,4.10
2017-09-02T13:05:06.817Z,4.10
2017-09-02T13:06:06.849Z,7.90
2017-09-02T13:07:06.907Z,6.60
2017-09-02T13:08:06.921Z,6.40
2017-09-02T13:09:07.250Z,9.50
2017-09-02T13:10:07.289Z,6.50
2017-09-02T13:11:07.026Z,7.90
2017-09-02T13:12:07.069Z,6.60
2017-09-02T13:13:07.108Z,8.50
2017-09-02T13:14:07.151Z,11.70